createdAt,value
2018-10-19T00:02:16.869Z,29.40
2018-10-19T00:04:48.234Z,29.40
2018-10-19T00:07:19.382Z,29.30
2018-10-19T00:09:50.939Z,29.40
2018-10-19T00:12:22.046Z,29.50
2018-10-19T00:14:53.289Z,29.40
2018-10-19T00:17:25.035Z,29.30
2018-10-19T00:19:56.681Z,29.30
2018-10-19T00:22:27.605Z,29.30
2018-10-19T00:24:59.498Z,29.30
2018-10-19T00:27:32.144Z,29.30
2018-10-19T00:30:02.943Z,29.30
2018-10-19T00:32:35.066Z,29.30
2018-10-19T00:35:06.408Z,29.30
2018-10-19T00:37:37.218Z,29.30
2018-10-19T00:40:09.251Z,29.30
2018-10-19T00:42:40.998Z,29.30
2018-10-19T00:45:12.134Z,29.20
2018-10-19T00:47:44.103Z,29.20
2018-10-19T00:50:15.275Z,29.30
2018-10-19T00:52:46.262Z,29.30
2018-10-19T00:55:17.872Z,29.40
2018-10-19T00:57:48.890Z,29.40
2018-10-19T01:00:20.595Z,29.50
2018-10-19T01:02:51.646Z,29.40
2018-10-19T01:05:23.170Z,29.50
2018-10-19T01:07:54.198Z,29.40
2018-10-19T01:10:26.550Z,29.40
2018-10-19T01:12:58.603Z,29.40
2018-10-19T01:15:30.959Z,29.40
2018-10-19T01:18:02.232Z,29.40
2018-10-19T01:20:33.530Z,29.40
2018-10-19T01:23:04.821Z,29.40
2018-10-19T01:25:39.603Z,29.50
2018-10-19T01:28:11.122Z,29.50
2018-10-19T01:30:42.550Z,29.50
2018-10-19T01:33:13.622Z,29.40
2018-10-19T01:35:45.330Z,29.40
2018-10-19T01:38:17.379Z,29.40
2018-10-19T01:40:50.239Z,29.40
2018-10-19T01:43:21.481Z,29.40
2018-10-19T01:45:58.907Z,29.30
2018-10-19T01:48:30.078Z,29.40
2018-10-19T01:51:01.429Z,29.40
2018-10-19T01:53:32.247Z,29.30
2018-10-19T01:56:04.065Z,29.30
2018-10-19T01:58:34.958Z,29.40
2018-10-19T02:01:06.688Z,29.40
2018-10-19T02:03:37.710Z,29.40
2018-10-19T02:06:09.207Z,29.40
2018-10-19T02:08:40.578Z,29.30
2018-10-19T02:11:12.083Z,29.30
2018-10-19T02:13:43.307Z,29.30
2018-10-19T02:16:14.733Z,29.30
2018-10-19T02:18:45.959Z,29.30
2018-10-19T02:21:17.342Z,29.20
2018-10-19T02:23:48.639Z,29.20
2018-10-19T02:26:19.926Z,29.20
2018-10-19T02:28:51.287Z,29.20
2018-10-19T02:31:22.571Z,29.20
2018-10-19T02:33:54.058Z,29.30
2018-10-19T02:36:25.371Z,29.30
2018-10-19T02:38:56.730Z,29.30
2018-10-19T02:41:29.383Z,29.40
2018-10-19T02:44:00.697Z,29.40
2018-10-19T02:46:32.046Z,29.30
2018-10-19T02:49:03.302Z,29.40
2018-10-19T02:51:34.616Z,29.30
2018-10-19T02:54:06.347Z,29.40
2018-10-19T02:56:37.639Z,29.40
2018-10-19T02:59:09.936Z,29.40
2018-10-19T03:01:41.337Z,29.30
2018-10-19T03:04:12.598Z,29.30
2018-10-19T03:06:44.096Z,29.20
2018-10-19T03:09:15.464Z,29.10
2018-10-19T03:11:47.319Z,29.00
2018-10-19T03:14:18.558Z,29.10
2018-10-19T03:16:50.132Z,29.10
2018-10-19T03:19:21.154Z,29.20
2018-10-19T03:21:52.402Z,29.30
2018-10-19T03:24:23.694Z,29.30
2018-10-19T03:26:55.195Z,29.30
2018-10-19T03:29:26.363Z,29.30
2018-10-19T03:31:57.499Z,29.40
2018-10-19T03:34:28.858Z,29.40
2018-10-19T03:37:00.482Z,29.70
2018-10-19T03:39:31.551Z,30.00
2018-10-19T03:42:04.405Z,30.30
2018-10-19T03:44:35.546Z,30.70
2018-10-19T03:47:09.374Z,31.00
2018-10-19T03:49:40.494Z,31.20
2018-10-19T03:52:12.014Z,31.50
2018-10-19T03:54:43.802Z,31.10
2018-10-19T03:57:15.551Z,30.80
2018-10-19T03:59:46.722Z,30.50
2018-10-19T04:02:18.922Z,30.30
2018-10-19T04:04:49.754Z,30.20
2018-10-19T04:07:20.848Z,30.10
2018-10-19T04:09:52.150Z,30.10
2018-10-19T04:12:23.477Z,30.10
2018-10-19T04:14:54.764Z,29.90
2018-10-19T04:17:26.359Z,29.90
2018-10-19T04:19:57.546Z,29.90
2018-10-19T04:22:28.933Z,29.80
2018-10-19T04:25:00.133Z,29.80
2018-10-19T04:27:31.434Z,29.80
2018-10-19T04:30:05.303Z,29.80
2018-10-19T04:32:36.770Z,29.70
2018-10-19T04:35:07.910Z,29.80
2018-10-19T04:37:39.374Z,29.70
2018-10-19T04:40:17.199Z,29.80
2018-10-19T04:42:48.772Z,29.80
2018-10-19T04:45:21.291Z,29.80
2018-10-19T04:47:52.814Z,29.90
2018-10-19T04:50:24.075Z,29.90
2018-10-19T04:52:55.455Z,30.00
2018-10-19T04:55:26.757Z,30.10
2018-10-19T04:57:58.109Z,30.40
2018-10-19T05:00:29.075Z,30.40
2018-10-19T05:03:00.202Z,30.50
2018-10-19T05:05:30.943Z,30.70
2018-10-19T05:08:02.599Z,30.70
2018-10-19T05:10:33.346Z,30.80
2018-10-19T05:13:05.139Z,30.80
2018-10-19T05:15:36.904Z,31.00
2018-10-19T05:18:08.492Z,30.70
2018-10-19T05:20:39.142Z,30.70
2018-10-19T05:23:10.092Z,30.80
2018-10-19T05:25:41.354Z,30.60
2018-10-19T05:28:12.780Z,30.90
2018-10-19T05:30:44.103Z,30.90
2018-10-19T05:33:15.509Z,30.90
2018-10-19T05:35:46.780Z,30.60
2018-10-19T05:38:18.311Z,30.10
2018-10-19T05:40:49.470Z,29.80
2018-10-19T05:43:21.662Z,29.70
2018-10-19T05:45:52.806Z,30.50
2018-10-19T05:48:24.195Z,32.50
2018-10-19T05:50:55.450Z,32.50
2018-10-19T05:53:26.854Z,32.20
2018-10-19T05:55:57.963Z,32.40
2018-10-19T05:58:29.427Z,31.80
2018-10-19T06:01:00.527Z,31.30
2018-10-19T06:03:32.114Z,31.30
2018-10-19T06:06:03.304Z,30.00
2018-10-19T06:08:34.831Z,29.20
2018-10-19T06:11:06.402Z,28.60
2018-10-19T06:13:38.036Z,28.30
2018-10-19T06:16:09.239Z,28.10
2018-10-19T06:18:40.865Z,28.30
2018-10-19T06:21:12.212Z,28.80
2018-10-19T06:23:43.567Z,29.30
2018-10-19T06:26:14.837Z,29.90
2018-10-19T06:28:46.401Z,30.50
2018-10-19T06:31:17.602Z,30.70
2018-10-19T06:33:50.747Z,30.80
2018-10-19T06:36:22.000Z,31.00
2018-10-19T06:38:53.187Z,31.10
2018-10-19T06:41:24.707Z,31.10
2018-10-19T06:43:56.250Z,31.30
2018-10-19T06:46:27.490Z,31.40
2018-10-19T06:48:58.957Z,31.70
2018-10-19T06:51:30.095Z,31.60
2018-10-19T06:54:02.366Z,32.00
2018-10-19T06:56:34.135Z,32.10
2018-10-19T06:59:05.760Z,31.90
2018-10-19T07:01:37.081Z,31.90
2018-10-19T07:04:08.478Z,31.90
2018-10-19T07:06:39.618Z,32.10
2018-10-19T07:09:11.207Z,32.50
2018-10-19T07:11:42.434Z,32.60
2018-10-19T07:14:14.045Z,33.30
2018-10-19T07:16:45.248Z,33.90
2018-10-19T07:19:16.544Z,33.80
2018-10-19T07:21:47.876Z,33.50
2018-10-19T07:24:18.948Z,33.20
2018-10-19T07:26:50.190Z,33.00
2018-10-19T07:29:21.568Z,33.70
2018-10-19T07:31:52.949Z,33.40
2018-10-19T07:34:24.542Z,33.80
2018-10-19T07:36:55.673Z,34.90
2018-10-19T07:39:27.158Z,35.70
2018-10-19T07:41:57.962Z,36.10
2018-10-19T07:44:30.048Z,36.30
2018-10-19T07:47:01.431Z,36.30
2018-10-19T07:49:33.027Z,36.30
2018-10-19T07:52:05.016Z,35.90
2018-10-19T07:54:36.585Z,35.90
2018-10-19T07:57:08.113Z,35.90
2018-10-19T07:59:39.485Z,36.00
2018-10-19T08:02:10.657Z,36.00
2018-10-19T08:04:41.847Z,36.00
2018-10-19T08:07:12.822Z,36.10
2018-10-19T08:09:44.142Z,36.10
2018-10-19T08:12:15.242Z,36.30
2018-10-19T08:14:46.672Z,36.20
2018-10-19T08:17:17.705Z,36.40
2018-10-19T08:19:49.791Z,36.40
2018-10-19T08:22:21.070Z,36.40
2018-10-19T08:24:54.001Z,36.30
2018-10-19T08:27:25.300Z,36.20
2018-10-19T08:29:57.389Z,35.90
2018-10-19T08:32:29.149Z,35.90
2018-10-19T08:35:00.455Z,35.80
2018-10-19T08:37:32.168Z,35.90
2018-10-19T08:40:04.507Z,35.80
2018-10-19T08:42:35.490Z,35.70
2018-10-19T08:45:09.371Z,35.60
2018-10-19T08:47:40.629Z,35.60
2018-10-19T08:50:11.939Z,35.70
2018-10-19T08:52:43.771Z,35.80
2018-10-19T08:55:15.344Z,35.80
2018-10-19T08:57:46.761Z,35.60
2018-10-19T09:00:18.329Z,35.60
2018-10-19T09:02:49.571Z,35.60
2018-10-19T09:05:20.934Z,35.70
2018-10-19T09:07:52.549Z,35.70
2018-10-19T09:10:24.309Z,35.80
2018-10-19T09:12:55.498Z,35.80
2018-10-19T09:15:27.136Z,35.80
2018-10-19T09:17:58.817Z,35.80
2018-10-19T09:20:30.500Z,35.90
2018-10-19T09:23:01.805Z,35.90
2018-10-19T09:25:33.946Z,35.90
2018-10-19T09:28:05.046Z,35.90
2018-10-19T09:30:36.683Z,35.90
2018-10-19T09:33:07.785Z,35.90
2018-10-19T09:35:40.251Z,35.70
2018-10-19T09:38:11.890Z,35.80
2018-10-19T09:40:43.085Z,35.90
2018-10-19T09:43:14.276Z,36.00
2018-10-19T09:45:46.290Z,36.00
2018-10-19T09:48:17.283Z,36.00
2018-10-19T09:50:49.529Z,35.90
2018-10-19T09:53:20.788Z,35.80
2018-10-19T09:55:52.099Z,35.70
2018-10-19T09:58:23.274Z,35.70
2018-10-19T10:00:56.961Z,35.60
2018-10-19T10:03:28.491Z,35.70
2018-10-19T10:05:59.966Z,35.70
2018-10-19T10:08:30.953Z,35.70
2018-10-19T10:11:02.873Z,35.80
2018-10-19T10:13:34.375Z,35.80
2018-10-19T10:16:05.974Z,35.60
2018-10-19T10:18:37.410Z,35.30
2018-10-19T10:21:09.526Z,35.30
2018-10-19T10:23:41.234Z,35.50
2018-10-19T10:26:12.973Z,35.30
2018-10-19T10:28:44.794Z,35.20
2018-10-19T10:31:17.037Z,35.20
2018-10-19T10:33:48.514Z,35.30
2018-10-19T10:36:20.107Z,35.40
2018-10-19T10:38:51.205Z,35.60
2018-10-19T10:41:22.619Z,35.50
2018-10-19T10:43:54.226Z,35.60
2018-10-19T10:46:26.479Z,35.50
2018-10-19T10:48:57.683Z,35.40
2018-10-19T10:51:29.038Z,35.50
2018-10-19T10:54:00.389Z,35.50
2018-10-19T10:56:31.985Z,35.60
2018-10-19T10:59:03.718Z,35.50
2018-10-19T11:01:35.519Z,35.50
2018-10-19T11:04:06.912Z,35.50
2018-10-19T11:06:38.345Z,35.40
2018-10-19T11:09:12.014Z,35.20
2018-10-19T11:11:43.410Z,35.10
2018-10-19T11:14:18.698Z,35.10
2018-10-19T11:16:53.841Z,35.00
2018-10-19T11:19:24.973Z,34.80
2018-10-19T11:21:57.634Z,34.80
2018-10-19T11:24:28.864Z,34.80
2018-10-19T11:27:00.329Z,34.80
2018-10-19T11:29:31.519Z,34.70
2018-10-19T11:32:03.175Z,34.70
2018-10-19T11:34:37.507Z,34.60
2018-10-19T11:37:08.753Z,34.50
2018-10-19T11:39:49.680Z,34.60
2018-10-19T11:42:21.177Z,34.40
2018-10-19T11:44:52.288Z,34.40
2018-10-19T11:47:24.962Z,34.40
2018-10-19T11:49:56.159Z,34.20
2018-10-19T11:52:28.507Z,34.20
2018-10-19T11:54:59.785Z,34.10
2018-10-19T11:57:34.401Z,34.20
2018-10-19T12:00:06.033Z,34.10
2018-10-19T12:02:37.675Z,34.00
2018-10-19T12:05:09.247Z,33.90
2018-10-19T12:07:41.163Z,34.00
2018-10-19T12:10:13.545Z,33.90
2018-10-19T12:12:45.206Z,33.90
2018-10-19T12:15:17.470Z,33.90
2018-10-19T12:17:48.929Z,33.90
2018-10-19T12:20:20.288Z,34.00
2018-10-19T12:22:51.786Z,34.00
2018-10-19T12:25:22.879Z,33.80
2018-10-19T12:27:54.355Z,33.90
2018-10-19T12:30:25.405Z,33.80
2018-10-19T12:32:56.860Z,33.80
2018-10-19T12:35:28.005Z,33.80
2018-10-19T12:37:59.619Z,33.70
2018-10-19T12:40:30.647Z,33.70
2018-10-19T12:43:02.357Z,33.60
2018-10-19T12:46:49.006Z,33.50
2018-10-19T12:49:22.272Z,33.50
2018-10-19T12:51:53.523Z,33.40
2018-10-19T12:54:24.832Z,33.40
2018-10-19T12:56:56.125Z,33.30
2018-10-19T12:59:27.493Z,33.30
2018-10-19T13:01:58.729Z,33.20
2018-10-19T13:04:30.350Z,33.20
2018-10-19T13:07:02.947Z,33.10
2018-10-19T13:09:34.251Z,33.10
2018-10-19T13:12:05.651Z,33.10
2018-10-19T13:14:37.674Z,33.10
2018-10-19T13:17:09.494Z,33.00
2018-10-19T13:19:41.791Z,33.00
2018-10-19T13:22:12.457Z,32.90
2018-10-19T13:24:44.323Z,32.80
2018-10-19T13:27:16.511Z,32.80
2018-10-19T13:29:48.283Z,32.90
2018-10-19T13:32:19.623Z,32.80
2018-10-19T13:34:51.107Z,32.80
2018-10-19T13:37:22.522Z,32.80
2018-10-19T13:39:54.175Z,32.70
2018-10-19T13:42:25.267Z,32.70
2018-10-19T13:44:56.673Z,32.70
2018-10-19T13:47:27.851Z,32.60
2018-10-19T13:50:00.600Z,32.50
2018-10-19T13:52:31.911Z,32.50
2018-10-19T13:55:03.859Z,32.50
2018-10-19T13:57:35.027Z,32.50
2018-10-19T14:00:07.518Z,32.40
2018-10-19T14:02:38.872Z,32.40
2018-10-19T14:05:10.456Z,32.40
2018-10-19T14:07:42.237Z,32.40
2018-10-19T14:10:13.671Z,32.30
2018-10-19T14:12:44.772Z,32.30
2018-10-19T14:15:16.287Z,32.30
2018-10-19T14:17:47.912Z,32.30
2018-10-19T14:20:19.283Z,32.30
2018-10-19T14:22:51.233Z,32.30
2018-10-19T14:25:22.700Z,32.30
2018-10-19T14:27:54.067Z,32.30
2018-10-19T14:30:28.592Z,32.20
2018-10-19T14:33:00.666Z,32.20
2018-10-19T14:35:31.843Z,32.20
2018-10-19T14:38:04.258Z,32.20
2018-10-19T14:40:35.855Z,32.20
2018-10-19T14:43:07.612Z,32.20
2018-10-19T14:45:43.139Z,32.20
2018-10-19T14:48:14.762Z,32.10
2018-10-19T14:50:46.650Z,32.20
2018-10-19T14:53:21.154Z,32.10
2018-10-19T14:55:52.418Z,32.10
2018-10-19T14:58:23.384Z,32.10
2018-10-19T15:00:54.768Z,32.20
2018-10-19T15:03:25.696Z,32.10
2018-10-19T15:05:58.201Z,32.20
2018-10-19T15:08:29.091Z,32.20
2018-10-19T15:11:00.269Z,32.20
2018-10-19T15:13:31.913Z,32.10
2018-10-19T15:16:03.626Z,32.10
2018-10-19T15:18:34.455Z,32.10
2018-10-19T15:21:05.756Z,32.00
2018-10-19T15:23:36.642Z,32.00
2018-10-19T15:26:07.951Z,32.00
2018-10-19T15:28:38.864Z,32.00
2018-10-19T15:31:10.323Z,32.00
2018-10-19T15:33:41.564Z,32.00
2018-10-19T15:36:12.885Z,32.00
2018-10-19T15:38:44.152Z,32.00
2018-10-19T15:41:16.782Z,32.00
2018-10-19T15:43:48.122Z,32.00
2018-10-19T15:46:19.577Z,32.00
2018-10-19T15:48:50.791Z,31.90
2018-10-19T15:51:23.047Z,32.00
2018-10-19T15:53:54.490Z,31.90
2018-10-19T15:56:25.857Z,31.90
2018-10-19T15:58:57.093Z,31.90
2018-10-19T16:01:28.483Z,31.90
2018-10-19T16:03:59.774Z,31.90
2018-10-19T16:06:31.214Z,31.90
2018-10-19T16:09:02.525Z,31.80
2018-10-19T16:11:33.768Z,31.90
2018-10-19T16:14:06.149Z,31.90
2018-10-19T16:16:37.814Z,31.90
2018-10-19T16:19:09.219Z,31.90
2018-10-19T16:21:41.207Z,31.90
2018-10-19T16:24:12.614Z,32.00
2018-10-19T16:26:43.952Z,31.90
2018-10-19T16:29:15.606Z,31.90
2018-10-19T16:31:46.775Z,31.90
2018-10-19T16:34:17.831Z,31.90
2018-10-19T16:36:49.191Z,31.90
2018-10-19T16:39:20.469Z,31.90
2018-10-19T16:41:51.896Z,31.90
2018-10-19T16:44:23.298Z,31.90
2018-10-19T16:46:54.684Z,31.90
2018-10-19T16:49:25.783Z,31.90
2018-10-19T16:51:57.362Z,31.90
2018-10-19T16:54:28.520Z,31.90
2018-10-19T16:57:00.018Z,31.90
2018-10-19T16:59:31.238Z,31.80
2018-10-19T17:02:02.465Z,31.80
2018-10-19T17:04:33.761Z,31.80
2018-10-19T17:07:05.256Z,31.70
2018-10-19T17:09:36.495Z,31.70
2018-10-19T17:12:07.856Z,31.70
2018-10-19T17:14:39.088Z,31.70
2018-10-19T17:17:10.546Z,31.70
2018-10-19T17:19:41.940Z,31.70
2018-10-19T17:22:13.315Z,31.70
2018-10-19T17:24:44.931Z,31.70
2018-10-19T17:27:16.348Z,31.60
2018-10-19T17:29:47.547Z,31.60
2018-10-19T17:32:19.020Z,31.50
2018-10-19T17:34:50.251Z,31.60
2018-10-19T17:37:21.514Z,31.50
2018-10-19T17:39:52.939Z,31.60
2018-10-19T17:42:24.050Z,31.60
2018-10-19T17:44:55.318Z,31.50
2018-10-19T17:47:26.674Z,31.60
2018-10-19T17:49:57.890Z,31.50
2018-10-19T17:52:30.032Z,31.50
2018-10-19T17:55:02.873Z,31.60
2018-10-19T17:57:34.178Z,31.50
2018-10-19T18:00:06.282Z,31.50
2018-10-19T18:02:38.222Z,31.50
2018-10-19T18:05:09.495Z,31.50
2018-10-19T18:07:40.807Z,31.50
2018-10-19T18:10:12.176Z,31.50
2018-10-19T18:12:43.611Z,31.50
2018-10-19T18:15:14.972Z,31.50
2018-10-19T18:17:46.436Z,31.50
2018-10-19T18:20:17.467Z,31.50
2018-10-19T18:22:48.988Z,31.50
2018-10-19T18:25:20.122Z,31.40
2018-10-19T18:27:51.570Z,31.50
2018-10-19T18:30:22.697Z,31.40
2018-10-19T18:32:54.076Z,31.40
2018-10-19T18:35:25.402Z,31.40
2018-10-19T18:37:56.954Z,31.40
2018-10-19T18:40:28.126Z,31.30
2018-10-19T18:42:59.580Z,31.30
2018-10-19T18:45:30.786Z,31.40
2018-10-19T18:48:02.142Z,31.30
2018-10-19T18:50:33.411Z,31.30
2018-10-19T18:53:07.794Z,31.30
2018-10-19T18:55:38.978Z,31.30
2018-10-19T18:58:10.753Z,31.30
2018-10-19T19:00:42.717Z,31.30
2018-10-19T19:03:13.966Z,31.30
2018-10-19T19:05:45.075Z,31.30
2018-10-19T19:08:16.645Z,31.40
2018-10-19T19:10:47.700Z,31.30
2018-10-19T19:13:24.010Z,31.30
2018-10-19T19:15:54.963Z,31.30
2018-10-19T19:18:26.218Z,31.30
2018-10-19T19:20:57.660Z,31.30
2018-10-19T19:23:29.306Z,31.30
2018-10-19T19:26:09.403Z,31.40
2018-10-19T19:28:40.827Z,31.30
2018-10-19T19:31:12.210Z,31.30
2018-10-19T19:33:48.270Z,31.20
2018-10-19T19:36:20.007Z,31.10
2018-10-19T19:38:51.378Z,31.00
2018-10-19T19:41:27.284Z,30.90
2018-10-19T19:43:59.028Z,30.90
2018-10-19T19:46:30.056Z,30.90
2018-10-19T19:49:06.645Z,30.90
2018-10-19T19:51:37.890Z,30.90
2018-10-19T19:54:10.706Z,30.90
2018-10-19T19:56:41.719Z,30.90
2018-10-19T19:59:13.188Z,30.90
2018-10-19T20:01:44.262Z,30.80
2018-10-19T20:04:15.771Z,30.80
2018-10-19T20:06:46.879Z,30.90
2018-10-19T20:09:19.776Z,30.80
2018-10-19T20:11:50.916Z,30.80
2018-10-19T20:14:22.269Z,30.90
2018-10-19T20:16:53.264Z,30.80
2018-10-19T20:19:24.638Z,30.90
2018-10-19T20:21:55.909Z,31.00
2018-10-19T20:24:27.772Z,31.00
2018-10-19T20:26:58.871Z,31.00
2018-10-19T20:29:30.478Z,31.00
2018-10-19T20:32:02.243Z,31.00
2018-10-19T20:34:33.769Z,31.00
2018-10-19T20:37:04.746Z,31.00
2018-10-19T20:39:36.370Z,31.00
2018-10-19T20:42:07.394Z,31.00
2018-10-19T20:44:38.753Z,30.90
2018-10-19T20:47:09.826Z,30.90
2018-10-19T20:49:41.410Z,30.80
2018-10-19T20:52:12.994Z,30.80
2018-10-19T20:54:46.216Z,30.70
2018-10-19T20:57:17.395Z,30.70
2018-10-19T20:59:48.782Z,30.70
2018-10-19T21:02:20.020Z,30.70
2018-10-19T21:04:51.058Z,30.70
2018-10-19T21:07:22.011Z,30.70
2018-10-19T21:09:53.719Z,30.70
2018-10-19T21:12:24.763Z,30.70
2018-10-19T21:14:56.275Z,30.70
2018-10-19T21:17:27.212Z,30.60
2018-10-19T21:19:58.743Z,30.60
2018-10-19T21:22:29.833Z,30.60
2018-10-19T21:25:02.134Z,30.60
2018-10-19T21:27:33.142Z,30.60
2018-10-19T21:30:04.911Z,30.60
2018-10-19T21:32:36.021Z,30.60
2018-10-19T21:35:07.514Z,30.60
2018-10-19T21:37:38.766Z,30.60
2018-10-19T21:40:10.215Z,30.50
2018-10-19T21:42:41.466Z,30.50
2018-10-19T21:45:12.841Z,30.50
2018-10-19T21:47:44.067Z,30.50
2018-10-19T21:50:16.363Z,30.60
2018-10-19T21:52:47.439Z,30.60
2018-10-19T21:55:19.712Z,30.60
2018-10-19T21:57:50.973Z,30.50
2018-10-19T22:00:22.594Z,30.50
2018-10-19T22:02:53.776Z,30.50
2018-10-19T22:05:25.182Z,30.50
2018-10-19T22:07:56.421Z,30.50
2018-10-19T22:10:27.628Z,30.60
2018-10-19T22:12:58.919Z,30.50
2018-10-19T22:15:30.131Z,30.60
2018-10-19T22:18:02.162Z,30.60
2018-10-19T22:20:33.391Z,30.60
2018-10-19T22:23:05.264Z,30.60
2018-10-19T22:25:36.899Z,30.60
2018-10-19T22:28:07.906Z,30.60
2018-10-19T22:30:39.363Z,30.60
2018-10-19T22:33:10.437Z,30.60
2018-10-19T22:35:41.919Z,30.60
2018-10-19T22:38:13.611Z,30.60
2018-10-19T22:40:45.091Z,30.60
2018-10-19T22:43:16.417Z,30.60
2018-10-19T22:45:48.004Z,30.60
2018-10-19T22:48:19.209Z,30.60
2018-10-19T22:50:51.427Z,30.60
2018-10-19T22:53:22.495Z,30.50
2018-10-19T22:55:55.782Z,30.50
2018-10-19T22:58:26.794Z,30.50
2018-10-19T23:00:58.241Z,30.50
2018-10-19T23:03:29.456Z,30.50
2018-10-19T23:06:01.415Z,30.50
2018-10-19T23:08:32.675Z,30.50
2018-10-19T23:11:04.142Z,30.40
2018-10-19T23:13:35.399Z,30.40
2018-10-19T23:16:07.225Z,30.40
2018-10-19T23:18:38.348Z,30.40
2018-10-19T23:21:09.756Z,30.40
2018-10-19T23:23:40.947Z,30.40
2018-10-19T23:26:12.247Z,30.40
2018-10-19T23:28:43.431Z,30.40
2018-10-19T23:31:14.985Z,30.40
2018-10-19T23:33:46.158Z,30.40
2018-10-19T23:36:17.422Z,30.40
2018-10-19T23:38:48.618Z,30.40
2018-10-19T23:41:19.874Z,30.40
2018-10-19T23:43:51.101Z,30.40
2018-10-19T23:46:22.614Z,30.40
2018-10-19T23:48:53.850Z,30.40
2018-10-19T23:51:24.986Z,30.40
2018-10-19T23:53:56.253Z,30.30
2018-10-19T23:56:29.294Z,30.30
2018-10-19T23:59:00.484Z,30.20
